Time;durP1;ratioP1;P1;durP2;ratioP2;P2;SDS_P1;SDS_P2;PMS_P1;PMS_P2;Temp;Humidity;BMP_temperature;BMP_pressure;BME280_temperature;BME280_humidity;BME280_pressure;Samples;Min_cycle;Max_cycle;Signal;HPM_P1;HPM_P2
2022/04/27 00:01:33;;;;;;;5.37;4.07;;;;;;;17.32;78.75;99472.53;5073640;28;20199;-59
2022/04/27 00:04:00;;;;;;;11.03;4.67;;;;;;;17.06;79.91;99462.41;5073361;28;20226;-59
2022/04/27 00:06:27;;;;;;;5.47;3.83;;;;;;;16.96;80.85;99461.66;5073474;28;20213;-60
2022/04/27 00:08:54;;;;;;;4.03;3.63;;;;;;;16.87;81.19;99463.47;5086051;28;20206;-59
2022/04/27 00:11:22;;;;;;;5.30;3.87;;;;;;;16.72;82.07;99466.22;5093371;28;20757;-59
2022/04/27 00:13:49;;;;;;;5.10;3.77;;;;;;;16.66;82.43;99466.28;5093519;28;20186;-59
2022/04/27 00:16:16;;;;;;;6.73;4.17;;;;;;;16.58;83.15;99468.94;5092100;28;20314;-60
2022/04/27 00:18:43;;;;;;;5.90;3.70;;;;;;;16.47;83.32;99470.72;5093348;28;20200;-59
2022/04/27 00:21:10;;;;;;;4.20;3.50;;;;;;;16.29;84.33;99455.28;5093298;28;20202;-59
2022/04/27 00:23:37;;;;;;;6.13;3.67;;;;;;;16.24;84.58;99457.06;5092126;28;20704;-59
2022/04/27 00:26:05;;;;;;;4.88;3.97;;;;;;;16.22;84.93;99457.09;5092156;28;20446;-59
2022/04/27 00:28:33;;;;;;;5.13;3.30;;;;;;;16.16;85.00;99457.13;5093582;28;20199;-59
2022/04/27 00:31:00;;;;;;;9.30;4.30;;;;;;;16.15;85.41;99457.97;5093451;28;20296;-60
2022/04/27 00:33:27;;;;;;;4.93;4.17;;;;;;;16.17;85.83;99460.56;5092579;28;20504;-59
2022/04/27 00:35:54;;;;;;;5.07;4.03;;;;;;;16.19;85.49;99451.03;5093326;28;20202;-59
2022/04/27 00:38:21;;;;;;;4.63;4.00;;;;;;;16.22;85.13;99451.03;5093100;28;20201;-59
2022/04/27 00:40:48;;;;;;;4.50;4.03;;;;;;;16.20;85.07;99448.47;5093435;28;20219;-59
2022/04/27 00:43:15;;;;;;;4.50;3.80;;;;;;;16.15;85.44;99457.13;5093336;28;20193;-60
2022/04/27 00:45:43;;;;;;;4.53;3.80;;;;;;;16.14;85.72;99450.22;5092919;28;20199;-60
2022/04/27 00:48:10;;;;;;;4.40;3.87;;;;;;;16.12;85.36;99442.47;5092820;28;20658;-60
2022/04/27 00:50:37;;;;;;;4.13;3.73;;;;;;;16.12;85.39;99449.38;5092718;28;20200;-59
2022/04/27 00:53:04;;;;;;;4.27;3.87;;;;;;;16.14;85.23;99442.44;5092907;28;20211;-59
2022/04/27 00:55:31;;;;;;;4.83;3.37;;;;;;;16.11;85.28;99447.66;5092365;28;20558;-59
2022/04/27 00:57:59;;;;;;;4.20;3.77;;;;;;;16.09;85.26;99446.81;5092601;28;20195;-59
2022/04/27 01:00:27;;;;;;;4.13;3.80;;;;;;;16.09;85.16;99446.81;5092608;28;20634;-59
2022/04/27 01:02:55;;;;;;;4.33;3.90;;;;;;;15.99;85.06;99440.81;5092434;28;20200;-59
2022/04/27 01:05:23;;;;;;;4.60;3.73;;;;;;;16.03;84.94;99449.44;5092268;28;20683;-59
2022/04/27 01:07:50;;;;;;;3.60;3.30;;;;;;;16.01;85.19;99446.88;5092462;28;20659;-59
2022/04/27 01:10:18;;;;;;;4.50;3.50;;;;;;;16.00;85.46;99452.91;5092567;28;20187;-59
2022/04/27 01:12:45;;;;;;;6.03;4.10;;;;;;;15.94;85.82;99446.03;5092196;28;20191;-59
2022/04/27 01:15:13;;;;;;;4.93;3.57;;;;;;;15.87;85.80;99446.94;5092331;28;20219;-59
2022/04/27 01:17:40;;;;;;;4.03;3.70;;;;;;;15.85;86.09;99438.31;5092415;28;20198;-59
2022/04/27 01:20:10;;;;;;;4.23;3.83;;;;;;;15.83;86.29;99434.00;5092339;28;20701;-59
2022/04/27 01:22:38;;;;;;;4.40;4.00;;;;;;;15.83;86.60;99429.69;5092428;28;20187;-59
2022/04/27 01:25:06;;;;;;;6.83;4.00;;;;;;;15.75;86.78;99426.28;5091975;28;20283;-59
2022/04/27 01:27:33;;;;;;;4.27;3.70;;;;;;;15.68;86.85;99426.34;5092377;28;20210;-59
2022/04/27 01:30:00;;;;;;;6.30;4.67;;;;;;;15.59;87.20;99422.06;5091990;28;20203;-59
2022/04/27 01:32:27;;;;;;;4.47;4.03;;;;;;;15.53;87.50;99419.50;5091990;28;20201;-60
2022/04/27 01:34:54;;;;;;;5.40;4.20;;;;;;;15.48;87.70;99418.66;5092032;28;20585;-59
2022/04/27 01:40:08;;;;;;;3.80;3.50;;;;;;;15.38;88.52;99429.91;5092064;28;20277;-59
2022/04/27 01:42:35;;;;;;;4.83;4.37;;;;;;;15.36;88.68;99426.44;5091729;28;20669;-59
2022/04/27 01:45:02;;;;;;;5.20;4.70;;;;;;;15.41;88.84;99427.28;5090742;28;20444;-59
2022/04/27 01:47:29;;;;;;;4.30;3.93;;;;;;;15.41;88.22;99426.44;5091403;28;20228;-59
2022/04/27 01:49:56;;;;;;;5.07;4.57;;;;;;;15.40;88.03;99424.69;5091402;28;20191;-59
2022/04/27 01:55:09;;;;;;;4.43;4.07;;;;;;;15.30;88.06;99431.63;5091600;28;20182;-59
2022/04/27 01:57:36;;;;;;;5.13;3.97;;;;;;;15.24;88.33;99422.16;5091517;28;20195;-59
2022/04/27 02:00:04;;;;;;;4.43;4.03;;;;;;;15.27;88.32;99423.91;5091281;28;20191;-59
2022/04/27 02:02:33;;;;;;;5.80;4.30;;;;;;;15.24;88.31;99408.38;5091605;28;20195;-56
2022/04/27 02:05:00;;;;;;;6.03;4.20;;;;;;;15.28;88.36;99418.69;5090471;28;20471;-56
2022/04/27 02:07:27;;;;;;;4.87;4.43;;;;;;;15.23;88.21;99414.41;5090713;28;20433;-56
2022/04/27 02:09:53;;;;;;;4.67;4.10;;;;;;;15.24;87.88;99413.56;5091231;28;20195;-56
2022/04/27 02:12:22;;;;;;;4.30;3.90;;;;;;;15.23;87.55;99409.22;5091119;28;20198;-56
2022/04/27 02:14:49;;;;;;;4.20;3.90;;;;;;;15.20;87.70;99409.25;5091342;28;20558;-56
2022/04/27 02:17:16;;;;;;;5.13;4.63;;;;;;;15.16;87.89;99410.97;5091193;28;20217;-56
2022/04/27 02:19:42;;;;;;;4.57;3.90;;;;;;;15.19;87.99;99416.13;5090988;28;20191;-56
2022/04/27 02:22:09;;;;;;;4.33;4.03;;;;;;;15.22;87.75;99413.53;5090916;28;20195;-56
2022/04/27 02:24:36;;;;;;;5.73;4.47;;;;;;;15.23;87.87;99414.41;5090794;28;20325;-56
2022/04/27 02:27:03;;;;;;;4.00;3.70;;;;;;;15.21;87.91;99417.03;5090815;28;20197;-56
2022/04/27 02:29:31;;;;;;;4.67;4.27;;;;;;;15.18;87.97;99411.84;5090736;28;20190;-56
2022/04/27 02:31:58;;;;;;;5.27;4.67;;;;;;;15.18;88.16;99410.97;5090980;28;20195;-56
2022/04/27 02:34:25;;;;;;;4.73;4.33;;;;;;;15.17;88.32;99407.53;5090768;28;20201;-56
2022/04/27 02:36:52;;;;;;;4.40;4.00;;;;;;;15.17;87.73;99404.94;5090726;28;20197;-56
2022/04/27 02:39:19;;;;;;;6.37;4.70;;;;;;;15.10;88.19;99404.97;5090596;28;20201;-56
2022/04/27 02:41:45;;;;;;;5.17;4.63;;;;;;;15.06;88.14;99403.25;5090622;28;20667;-56
2022/04/27 02:44:12;;;;;;;4.40;4.10;;;;;;;15.12;88.28;99411.00;5090749;28;20656;-56
2022/04/27 02:46:41;;;;;;;5.97;5.47;;;;;;;15.11;88.44;99404.09;5090567;28;20197;-56
2022/04/27 02:51:55;;;;;;;5.83;5.03;;;;;;;15.01;88.54;99405.88;5090601;28;20208;-56
2022/04/27 02:54:23;;;;;;;5.93;5.10;;;;;;;14.99;88.49;99398.97;5090527;28;20179;-56
2022/04/27 02:56:51;;;;;;;6.97;6.30;;;;;;;15.03;88.46;99409.31;5090705;28;20186;-56
2022/04/27 02:59:18;;;;;;;6.87;6.23;;;;;;;14.99;89.14;99409.31;5090539;28;20201;-56
2022/04/27 03:01:46;;;;;;;6.27;5.40;;;;;;;14.83;89.22;99384.38;5090248;28;20201;-56
2022/04/27 03:04:13;;;;;;;7.43;5.87;;;;;;;14.96;89.38;99405.03;5090389;28;20202;-56
2022/04/27 03:06:40;;;;;;;5.87;5.37;;;;;;;14.94;89.24;99405.91;5090589;28;20202;-56
2022/04/27 03:09:07;;;;;;;5.63;5.13;;;;;;;14.92;89.63;99413.63;5090359;28;20195;-56
2022/04/27 03:11:34;;;;;;;7.43;5.67;;;;;;;14.91;89.07;99413.66;5090323;28;20624;-56
2022/04/27 03:14:01;;;;;;;8.43;5.57;;;;;;;14.93;88.68;99423.13;5090208;28;20440;-61
2022/04/27 03:16:28;;;;;;;5.77;5.00;;;;;;;14.92;88.38;99416.22;5090121;28;20317;-57
2022/04/27 03:18:56;;;;;;;5.50;5.00;;;;;;;14.94;88.20;99419.69;5092758;28;20214;-56
2022/04/27 03:21:23;;;;;;;6.00;5.07;;;;;;;14.95;88.23;99417.94;5094798;28;20201;-56
2022/04/27 03:23:50;;;;;;;6.03;5.47;;;;;;;14.96;88.20;99422.25;5094372;28;20191;-56
2022/04/27 03:26:17;;;;;;;8.87;6.07;;;;;;;14.96;88.17;99425.72;5094299;28;20246;-56
2022/04/27 03:28:44;;;;;;;6.43;5.83;;;;;;;14.91;88.29;99426.59;5094099;28;20199;-56
2022/04/27 03:31:11;;;;;;;7.00;5.77;;;;;;;14.93;88.44;99422.28;5094120;28;20187;-56
2022/04/27 03:33:38;;;;;;;6.70;6.10;;;;;;;14.95;88.41;99426.56;5094082;28;20193;-56
2022/04/27 03:36:08;;;;;;;6.50;5.80;;;;;;;14.94;88.24;99434.34;5094221;28;20652;-56
2022/04/27 03:38:35;;;;;;;8.90;8.10;;;;;;;14.93;88.53;99437.78;5095484;28;20217;-56
2022/04/27 03:41:02;;;;;;;9.93;8.93;;;;;;;14.97;88.60;99430.00;5114492;28;20197;-56
2022/04/27 03:43:29;;;;;;;9.57;8.70;;;;;;;14.98;88.68;99438.63;5114402;28;20200;-58
2022/04/27 03:45:56;;;;;;;9.53;8.63;;;;;;;14.92;88.86;99431.75;5114505;28;20318;-56
2022/04/27 03:48:23;;;;;;;10.10;9.10;;;;;;;14.96;89.11;99441.25;5114065;27;20186;-56
2022/04/27 03:50:49;;;;;;;11.97;9.43;;;;;;;14.97;89.25;99439.53;5114046;28;20988;-56
2022/04/27 03:53:18;;;;;;;9.00;8.03;;;;;;;15.02;89.10;99445.53;5114487;28;20891;-57
2022/04/27 03:55:45;;;;;;;13.40;8.73;;;;;;;15.00;88.79;99440.34;5114498;28;20216;-56
2022/04/27 03:58:12;;;;;;;10.83;9.50;;;;;;;15.09;88.94;99453.28;5114196;28;20195;-56
2022/04/27 04:00:39;;;;;;;11.37;8.47;;;;;;;15.14;88.78;99451.53;5114564;28;20930;-56
2022/04/27 04:03:05;;;;;;;9.70;8.70;;;;;;;15.15;88.38;99458.44;5113983;28;20196;-56
2022/04/27 04:05:32;;;;;;;10.10;8.25;;;;;;;15.22;88.30;99456.69;5113919;28;20442;-56
2022/04/27 04:07:59;;;;;;;8.70;7.80;;;;;;;15.28;88.11;99457.53;5114046;28;20194;-56
2022/04/27 04:10:27;;;;;;;9.53;8.33;;;;;;;15.20;88.25;99443.75;5103508;28;20202;-59
2022/04/27 04:12:54;;;;;;;8.90;7.53;;;;;;;15.31;87.77;99462.69;5092999;28;20195;-59
2022/04/27 04:15:21;;;;;;;9.30;7.60;;;;;;;15.34;87.85;99467.88;5092641;28;20223;-59
2022/04/27 04:17:48;;;;;;;8.17;7.37;;;;;;;15.42;87.67;99470.44;5093078;28;20194;-59
2022/04/27 04:20:17;;;;;;;9.90;8.97;;;;;;;15.18;87.02;99423.94;5105438;28;20200;-59
2022/04/27 04:22:45;;;;;;;13.80;9.40;;;;;;;15.42;86.95;99464.38;5113645;28;20193;-60
2022/04/27 04:30:43;;;;;;;10.53;8.53;;;;;;;15.40;86.80;99482.53;5092386;28;20724;-60
2022/04/27 04:33:10;;;;;;;11.07;9.30;;;;;;;15.47;86.63;99480.78;5092717;28;20191;-60
2022/04/27 04:35:37;;;;;;;14.93;10.40;;;;;;;15.54;86.79;99487.69;5092728;28;20194;-60
2022/04/27 04:38:05;;;;;;;11.40;10.20;;;;;;;15.59;86.67;99488.53;5077765;28;20218;-66
2022/04/27 04:40:32;;;;;;;14.30;9.63;;;;;;;15.57;86.21;99485.97;5073190;28;20195;-60
2022/04/27 04:43:00;;;;;;;10.37;9.33;;;;;;;15.57;85.81;99480.78;5072552;28;20187;-59
2022/04/27 04:45:27;;;;;;;16.33;10.10;;;;;;;15.60;85.85;99485.91;5072655;28;20222;-59
2022/04/27 04:47:54;;;;;;;12.17;10.33;;;;;;;15.31;85.59;99430.78;5085846;28;20203;-59
2022/04/27 04:50:21;;;;;;;8.50;7.50;;;;;;;15.70;85.11;99491.94;5106084;28;20211;-59
2022/04/27 04:52:48;;;;;;;8.80;7.93;;;;;;;15.69;84.22;99496.25;5095164;28;20210;-60
2022/04/27 04:55:15;;;;;;;10.17;9.03;;;;;;;15.72;84.23;99496.25;5092921;28;20203;-60
2022/04/27 04:57:42;;;;;;;10.40;8.03;;;;;;;15.76;84.07;99502.28;5092354;28;20696;-59
2022/04/27 05:00:12;;;;;;;9.07;8.17;;;;;;;15.79;83.93;99503.09;5092388;28;20209;-59
2022/04/27 05:02:38;;;;;;;9.77;8.77;;;;;;;15.85;83.81;99502.22;5092116;28;20189;-60
2022/04/27 05:05:07;;;;;;;10.10;9.10;;;;;;;15.94;83.85;99504.75;5092252;28;20236;-60
2022/04/27 05:07:34;;;;;;;13.53;8.53;;;;;;;15.97;83.27;99504.75;5092395;28;20190;-60
2022/04/27 05:10:01;;;;;;;13.20;8.77;;;;;;;16.03;83.56;99501.25;5091909;28;20195;-60
2022/04/27 05:12:29;;;;;;;8.60;7.80;;;;;;;16.05;83.20;99499.50;5090975;28;20307;-55
2022/04/27 05:14:56;;;;;;;8.80;7.57;;;;;;;16.04;83.08;99501.25;5091615;28;20693;-56
2022/04/27 05:17:24;;;;;;;13.67;8.23;;;;;;;16.10;83.25;99500.34;5091690;28;20197;-56
2022/04/27 05:19:53;;;;;;;11.03;7.03;;;;;;;16.18;83.00;99503.78;5091688;28;20319;-56
2022/04/27 05:22:20;;;;;;;7.63;6.93;;;;;;;16.21;82.57;99499.41;5091654;28;20611;-56
2022/04/27 05:24:47;;;;;;;8.10;6.43;;;;;;;16.29;82.07;99507.13;5091501;28;20216;-56
2022/04/27 05:27:14;;;;;;;8.13;6.27;;;;;;;16.36;81.40;99504.53;5098385;28;20205;-56
2022/04/27 05:32:27;;;;;;;8.57;7.07;;;;;;;16.60;80.41;99503.50;5098237;28;20580;-56
2022/04/27 05:34:54;;;;;;;8.00;6.73;;;;;;;16.66;80.08;99503.44;5091300;28;20220;-56
2022/04/27 05:37:21;;;;;;;8.33;6.63;;;;;;;16.70;79.16;99507.72;5091058;28;20272;-56
2022/04/27 05:39:48;;;;;;;7.30;6.57;;;;;;;16.66;79.15;99508.66;5091439;28;20649;-56
2022/04/27 05:42:15;;;;;;;12.27;7.60;;;;;;;16.78;79.48;99507.69;5090414;28;20186;-60
2022/04/27 05:44:42;;;;;;;8.87;6.70;;;;;;;16.84;79.27;99516.25;5090431;28;20193;-60
2022/04/27 05:47:09;;;;;;;8.13;6.87;;;;;;;16.83;79.45;99516.28;5091496;28;20218;-59
2022/04/27 05:49:37;;;;;;;8.10;6.37;;;;;;;16.86;78.88;99522.31;5090979;28;20654;-59
2022/04/27 05:52:04;;;;;;;7.37;6.67;;;;;;;16.84;78.58;99505.88;5091252;28;20204;-59
2022/04/27 05:54:31;;;;;;;7.47;6.47;;;;;;;17.07;78.63;99518.66;5090895;28;20199;-59
2022/04/27 05:56:58;;;;;;;8.23;6.17;;;;;;;17.11;78.12;99516.00;5090568;28;20195;-59
2022/04/27 05:59:25;;;;;;;8.43;6.07;;;;;;;17.09;77.82;99524.69;5090551;28;20199;-59
2022/04/27 06:01:52;;;;;;;8.80;6.37;;;;;;;16.97;78.56;99524.81;5090006;28;20195;-59
2022/04/27 06:04:18;;;;;;;7.73;6.27;;;;;;;16.99;78.61;99515.28;5090792;28;20199;-59
2022/04/27 06:06:47;;;;;;;8.87;6.53;;;;;;;17.02;77.83;99517.84;5090591;28;20231;-59
2022/04/27 06:09:14;;;;;;;8.43;5.73;;;;;;;17.07;77.87;99516.06;5091036;28;20209;-59
2022/04/27 06:11:41;;;;;;;6.93;6.20;;;;;;;17.11;77.91;99528.16;5090673;28;20197;-59
2022/04/27 06:14:08;;;;;;;6.33;5.73;;;;;;;17.24;77.15;99524.56;5090988;28;20204;-59
2022/04/27 06:16:35;;;;;;;6.30;5.77;;;;;;;17.29;76.69;99525.38;5090656;28;20697;-59
2022/04/27 06:19:02;;;;;;;7.63;6.40;;;;;;;17.34;76.84;99527.91;5090759;28;20255;-59
2022/04/27 06:21:31;;;;;;;6.13;5.37;;;;;;;17.38;76.02;99527.00;5090557;28;20191;-55
2022/04/27 06:24:00;;;;;;;5.80;5.20;;;;;;;17.54;76.13;99526.00;5089448;28;20815;-55
2022/04/27 06:26:27;;;;;;;5.70;4.57;;;;;;;17.70;74.06;99527.53;5090754;28;20472;-56
2022/04/27 06:28:54;;;;;;;7.00;4.43;;;;;;;17.50;73.45;99493.09;5090473;28;20191;-55
2022/04/27 06:31:21;;;;;;;5.40;4.90;;;;;;;17.71;73.78;99536.19;5090447;28;20184;-55
2022/04/27 06:33:48;;;;;;;14.63;5.40;;;;;;;17.73;74.54;99537.88;5090514;28;20205;-55
2022/04/27 06:36:15;;;;;;;6.80;5.10;;;;;;;17.55;74.27;99515.56;5089678;28;20439;-55
2022/04/27 06:38:42;;;;;;;8.33;5.00;;;;;;;17.87;73.89;99541.19;5090468;28;20187;-55
2022/04/27 06:41:10;;;;;;;4.93;4.40;;;;;;;17.98;72.85;99536.72;5088638;28;20202;-57
2022/04/27 06:43:37;;;;;;;5.22;4.72;;;;;;;18.04;72.46;99536.63;5087058;28;20375;-57
2022/04/27 06:46:04;;;;;;;6.03;5.50;;;;;;;18.17;72.38;99533.00;5089933;28;20211;-57
2022/04/27 06:48:32;;;;;;;5.43;4.93;;;;;;;18.09;71.99;99510.56;5089929;28;20202;-57
2022/04/27 06:50:59;;;;;;;6.93;5.67;;;;;;;18.34;71.95;99545.75;5087312;28;20661;-57
2022/04/27 06:53:26;;;;;;;7.97;5.63;;;;;;;18.41;71.92;99538.72;5090412;28;20190;-57
2022/04/27 06:55:53;;;;;;;7.77;5.33;;;;;;;18.47;71.66;99536.03;5089528;28;20224;-57
2022/04/27 06:58:21;;;;;;;8.77;5.77;;;;;;;18.56;70.99;99535.94;5090287;28;20612;-57
2022/04/27 07:00:48;;;;;;;6.27;5.60;;;;;;;18.61;70.71;99547.13;5090036;28;20210;-57
2022/04/27 07:03:15;;;;;;;7.87;5.50;;;;;;;18.67;70.70;99534.88;5090199;28;20197;-57
2022/04/27 07:05:42;;;;;;;6.10;5.03;;;;;;;18.78;69.20;99540.78;5089811;28;20215;-57
2022/04/27 07:08:09;;;;;;;8.63;5.57;;;;;;;18.86;68.36;99538.03;5089976;28;20562;-57
2022/04/27 07:10:37;;;;;;;7.80;5.37;;;;;;;18.94;68.38;99533.56;5089863;28;20191;-57
2022/04/27 07:13:05;;;;;;;8.13;5.63;;;;;;;18.94;68.87;99533.56;5090180;28;20244;-57
2022/04/27 07:15:33;;;;;;;5.87;5.37;;;;;;;18.98;68.93;99542.19;5089702;28;20229;-57
2022/04/27 07:18:00;;;;;;;6.33;5.23;;;;;;;19.05;67.85;99541.19;5090003;28;20244;-57
2022/04/27 07:20:27;;;;;;;6.33;5.73;;;;;;;19.22;68.05;99539.16;5089775;28;20205;-57
2022/04/27 07:22:54;;;;;;;7.33;5.17;;;;;;;19.33;68.14;99545.91;5089886;28;20191;-57
2022/04/27 07:25:21;;;;;;;8.03;6.07;;;;;;;19.48;66.96;99543.91;5088736;28;20193;-57
2022/04/27 07:27:48;;;;;;;7.97;6.57;;;;;;;19.60;66.56;99543.69;5087871;28;20206;-57
2022/04/27 07:30:15;;;;;;;6.90;6.23;;;;;;;19.66;66.03;99536.59;5089099;28;20187;-57
2022/04/27 07:32:44;;;;;;;6.30;5.80;;;;;;;19.75;65.69;99546.00;5089576;28;20179;-58
2022/04/27 07:35:11;;;;;;;9.57;6.50;;;;;;;19.80;65.41;99529.38;5086018;28;20194;-57
2022/04/27 07:37:38;;;;;;;9.50;6.60;;;;;;;19.90;65.14;99536.09;5089636;28;20256;-57
2022/04/27 07:40:10;;;;;;;7.33;6.40;;;;;;;20.00;64.81;99537.63;5089058;28;20206;-57
2022/04/27 07:42:37;;;;;;;8.40;5.80;;;;;;;20.09;63.99;99530.50;5069910;28;20245;-57
2022/04/27 07:45:06;;;;;;;9.93;6.10;;;;;;;20.24;63.69;99535.38;5088067;28;20194;-57
2022/04/27 07:47:39;;;;;;;9.00;6.67;;;;;;;20.30;62.94;99535.28;5089487;28;20227;-58
2022/04/27 07:50:09;;;;;;;10.03;6.30;;;;;;;20.38;62.46;99531.59;5089475;28;20264;-57
2022/04/27 07:52:36;;;;;;;7.33;6.60;;;;;;;20.43;62.33;99532.38;5089553;28;20202;-57
2022/04/27 07:55:04;;;;;;;10.40;6.40;;;;;;;20.43;62.03;99521.06;5089820;28;20199;-57
2022/04/27 07:57:31;;;;;;;9.90;6.27;;;;;;;20.45;62.34;99530.56;5088752;28;20404;-57
2022/04/27 07:59:58;;;;;;;7.80;6.53;;;;;;;20.37;61.79;99524.66;5088895;28;20201;-57
2022/04/27 08:02:25;;;;;;;8.10;6.10;;;;;;;20.36;61.93;99530.78;5089037;28;20187;-57
2022/04/27 08:04:52;;;;;;;9.23;6.33;;;;;;;20.47;62.13;99527.91;5089121;28;20194;-57
2022/04/27 08:07:20;;;;;;;10.00;6.23;;;;;;;20.32;61.63;99526.53;5093468;28;20222;-57
2022/04/27 08:09:47;;;;;;;6.77;5.97;;;;;;;20.27;61.41;99530.97;5093325;28;20202;-57
2022/04/27 08:12:14;;;;;;;9.20;6.67;;;;;;;20.36;61.22;99530.78;5093207;28;20202;-57
2022/04/27 08:14:41;;;;;;;10.63;6.40;;;;;;;20.41;60.91;99528.03;5093188;28;20201;-57
2022/04/27 08:17:08;;;;;;;9.77;6.00;;;;;;;20.48;60.17;99525.28;5093058;28;20252;-57
2022/04/27 08:19:35;;;;;;;8.30;6.53;;;;;;;20.47;60.27;99526.16;5092777;28;20202;-58
2022/04/27 08:22:02;;;;;;;9.40;6.40;;;;;;;20.53;60.42;99517.34;5092628;28;20584;-57
2022/04/27 08:24:31;;;;;;;9.73;7.00;;;;;;;20.72;60.42;99520.34;5092414;28;20697;-57
2022/04/27 08:26:58;;;;;;;10.80;7.07;;;;;;;20.76;60.40;99527.22;5092208;28;20261;-57
2022/04/27 08:29:25;;;;;;;12.73;6.10;;;;;;;20.83;59.53;99523.56;5092641;28;20195;-57
2022/04/27 08:31:53;;;;;;;13.87;7.60;;;;;;;20.60;60.15;99524.97;5092633;28;20212;-57
2022/04/27 08:34:19;;;;;;;10.47;6.40;;;;;;;20.71;60.53;99527.31;5092724;28;21163;-57
2022/04/27 08:36:46;;;;;;;7.83;6.27;;;;;;;20.90;59.61;99518.16;5092453;28;20191;-58
2022/04/27 08:39:15;;;;;;;10.30;7.17;;;;;;;21.09;59.22;99508.13;5092637;28;20187;-57
2022/04/27 08:41:43;;;;;;;8.33;7.30;;;;;;;21.16;59.84;99507.06;5092597;28;20191;-57
2022/04/27 08:44:11;;;;;;;11.52;7.93;;;;;;;20.98;59.43;99507.53;5092159;28;20796;-57
2022/04/27 08:46:39;;;;;;;10.63;8.23;;;;;;;21.03;59.73;99500.41;5092595;28;20219;-57
2022/04/27 08:49:10;;;;;;;10.33;7.37;;;;;;;20.99;59.90;99504.00;5092654;28;20186;-57
2022/04/27 08:51:38;;;;;;;15.57;7.47;;;;;;;20.88;59.88;99498.19;5092280;28;20190;-57
2022/04/27 08:54:06;;;;;;;9.93;7.40;;;;;;;21.05;60.24;99496.88;5091945;28;20546;-57
2022/04/27 08:56:34;;;;;;;8.90;7.07;;;;;;;21.00;60.41;99493.53;5091747;28;20676;-57
2022/04/27 08:59:03;;;;;;;10.07;7.40;;;;;;;21.18;61.56;99489.59;5091905;28;20187;-57
2022/04/27 09:01:30;;;;;;;11.37;6.73;;;;;;;21.31;59.70;99491.00;5091915;28;20191;-57
2022/04/27 09:04:13;;;;;;;8.90;6.40;;;;;;;21.51;58.31;99493.88;5091010;28;20489;-57
2022/04/27 09:06:41;;;;;;;8.57;7.30;;;;;;;21.72;58.04;99490.69;5091447;28;20627;-57
2022/04/27 09:09:10;;;;;;;8.70;7.47;;;;;;;21.98;59.17;99489.06;5091759;28;20191;-58
2022/04/27 09:11:38;;;;;;;8.37;7.20;;;;;;;22.16;58.94;99486.78;5091070;28;20187;-57
2022/04/27 09:14:08;;;;;;;7.70;6.17;;;;;;;21.85;57.21;99492.94;5091159;28;20248;-58
2022/04/27 09:22:03;;;;;;;7.43;6.57;;;;;;;21.36;59.58;99476.03;5091335;28;20209;-57
2022/04/27 09:24:47;;;;;;;7.13;6.43;;;;;;;21.19;58.68;99462.56;5091332;28;20661;-57
2022/04/27 09:27:17;;;;;;;11.80;6.50;;;;;;;21.21;59.04;99488.63;5090842;28;20570;-57
2022/04/27 09:29:55;;;;;;;10.60;5.90;;;;;;;21.28;58.78;99482.38;5091002;28;20195;-58
2022/04/27 09:32:22;;;;;;;6.93;6.07;;;;;;;21.43;59.26;99479.31;5090906;28;20246;-57
2022/04/27 09:34:50;;;;;;;7.30;5.60;;;;;;;21.44;58.35;99476.69;5090973;28;20193;-57
2022/04/27 09:37:18;;;;;;;10.40;5.73;;;;;;;21.34;59.59;99470.00;5091055;28;20680;-57
2022/04/27 09:39:46;;;;;;;7.47;6.70;;;;;;;21.40;60.54;99464.56;5090861;28;20217;-58
2022/04/27 09:42:14;;;;;;;11.03;5.87;;;;;;;21.59;58.99;99467.56;5091228;28;20516;-57
2022/04/27 09:44:42;;;;;;;7.33;6.00;;;;;;;21.45;59.46;99470.53;5091010;28;20198;-57
2022/04/27 09:47:12;;;;;;;7.27;5.80;;;;;;;21.44;60.57;99473.19;5090991;28;20229;-57
2022/04/27 09:49:43;;;;;;;6.53;5.57;;;;;;;21.63;61.25;99459.56;5090689;28;20198;-57
2022/04/27 09:52:14;;;;;;;9.23;5.80;;;;;;;21.63;59.86;99454.34;5090775;28;20218;-57
2022/04/27 09:54:44;;;;;;;7.43;5.90;;;;;;;21.87;59.78;99447.53;5090667;28;20428;-57
2022/04/27 09:57:16;;;;;;;7.37;6.47;;;;;;;22.20;59.12;99459.59;5090932;28;20195;-57
2022/04/27 09:59:44;;;;;;;8.60;6.63;;;;;;;22.04;58.32;99406.03;5091073;28;20191;-57
2022/04/27 10:02:21;;;;;;;10.00;5.67;;;;;;;22.40;57.92;99432.78;5090653;28;20327;-57
2022/04/27 10:04:50;;;;;;;9.63;6.33;;;;;;;22.62;58.49;99449.50;5090453;28;20195;-58
2022/04/27 10:07:22;;;;;;;6.10;5.50;;;;;;;22.69;58.15;99455.44;5090715;28;20218;-57
2022/04/27 10:09:50;;;;;;;8.27;5.37;;;;;;;22.79;55.97;99444.59;5090337;28;20191;-57
2022/04/27 10:12:17;;;;;;;6.53;5.40;;;;;;;22.98;55.56;99446.56;5090098;28;20195;-58
2022/04/27 10:14:45;;;;;;;7.15;5.00;;;;;;;22.63;54.99;99374.41;5089110;28;20826;-57
2022/04/27 10:17:15;;;;;;;4.43;3.90;;;;;;;23.14;54.22;99442.50;5090602;28;20194;-58
2022/04/27 10:19:45;;;;;;;7.37;4.80;;;;;;;23.30;52.81;99451.53;5090554;28;20374;-58
2022/04/27 10:22:26;;;;;;;6.37;5.00;;;;;;;23.31;53.18;99443.63;5089866;28;20195;-58
2022/04/27 10:24:55;;;;;;;5.53;4.47;;;;;;;23.27;53.08;99439.38;5089956;28;20194;-57
2022/04/27 10:27:24;;;;;;;6.60;4.40;;;;;;;23.14;53.08;99432.88;5088868;28;20302;-57
2022/04/27 10:29:52;;;;;;;6.60;4.77;;;;;;;23.09;53.16;99433.94;5089972;28;21025;-58
2022/04/27 10:32:40;;;;;;;8.07;4.50;;;;;;;23.02;53.45;99428.06;5089684;28;20191;-57
2022/04/27 10:35:29;;;;;;;7.47;5.13;;;;;;;23.02;53.95;99427.22;5089757;28;20205;-58
2022/04/27 10:37:58;;;;;;;9.17;4.73;;;;;;;23.09;53.53;99398.09;5089648;28;20649;-57
2022/04/27 10:40:29;;;;;;;5.67;4.47;;;;;;;23.35;53.20;99428.59;5089821;28;20187;-57
2022/04/27 10:43:02;;;;;;;6.17;4.63;;;;;;;23.33;53.19;99426.06;5089829;28;20187;-57
2022/04/27 10:45:29;;;;;;;7.30;4.67;;;;;;;23.38;52.97;99420.66;5090141;28;20574;-58
2022/04/27 10:47:57;;;;;;;7.13;4.17;;;;;;;23.09;52.77;99416.47;5089428;28;20264;-57
2022/04/27 10:50:33;;;;;;;7.53;3.90;;;;;;;23.30;52.57;99410.44;5086509;28;20191;-57
2022/04/27 10:53:21;;;;;;;7.13;3.67;;;;;;;23.42;52.38;99411.78;5095517;28;20208;-58
2022/04/27 10:55:51;;;;;;;5.47;3.20;;;;;;;23.49;51.08;99408.88;5090078;28;20685;-58
2022/04/27 10:58:42;;;;;;;6.33;3.43;;;;;;;23.65;51.30;99406.50;5110325;28;20186;-57
2022/04/27 11:01:31;;;;;;;6.73;3.33;;;;;;;23.84;50.82;99417.19;5110079;28;20201;-57
2022/04/27 11:04:11;;;;;;;6.60;3.13;;;;;;;23.91;49.68;99401.13;5108329;28;20199;-58
2022/04/27 11:07:26;;;;;;;7.60;2.97;;;;;;;24.06;49.35;99410.19;5096730;28;20435;-57
2022/04/27 11:10:10;;;;;;;4.27;2.33;;;;;;;24.18;47.62;99403.59;5083095;28;20202;-58
2022/04/27 11:12:38;;;;;;;5.20;2.90;;;;;;;24.16;47.46;99402.81;5087041;28;20214;-57
2022/04/27 11:15:06;;;;;;;6.33;2.87;;;;;;;24.33;47.97;99402.97;5089716;28;20227;-58
2022/04/27 11:17:34;;;;;;;2.87;2.57;;;;;;;24.21;48.81;99403.47;5089542;28;20194;-57
2022/04/27 11:20:03;;;;;;;4.13;2.67;;;;;;;24.11;48.79;99400.38;5089787;28;20198;-57
2022/04/27 11:22:38;;;;;;;4.72;2.40;;;;;;;24.13;48.77;99392.41;5088653;28;20436;-61
2022/04/27 11:25:07;;;;;;;5.97;3.00;;;;;;;24.37;48.32;99401.91;5089700;28;20190;-61
2022/04/27 11:27:36;;;;;;;6.30;4.20;;;;;;;24.56;46.55;99390.59;5087365;28;20211;-62
2022/04/27 11:30:05;;;;;;;6.82;4.40;;;;;;;24.79;46.87;99388.75;5087972;28;20450;-61
2022/04/27 11:32:32;;;;;;;8.10;3.20;;;;;;;24.86;46.18;99380.56;5089326;28;20206;-60
2022/04/27 11:34:59;;;;;;;4.87;3.03;;;;;;;24.87;46.67;99377.03;5089500;28;20209;-61
2022/04/27 11:37:27;;;;;;;4.73;2.60;;;;;;;24.81;45.50;99379.91;5089427;28;20195;-60
2022/04/27 11:39:54;;;;;;;5.90;3.10;;;;;;;24.70;45.22;99368.13;5090110;28;20202;-60
2022/04/27 11:42:21;;;;;;;4.13;2.77;;;;;;;24.57;45.30;99370.44;5093442;28;20187;-61
2022/04/27 11:44:52;;;;;;;6.17;3.53;;;;;;;24.36;45.94;99317.03;5093183;28;20199;-60
2022/04/27 11:47:29;;;;;;;7.97;3.83;;;;;;;24.77;46.35;99352.03;5091031;28;20252;-61
2022/04/27 11:49:58;;;;;;;6.30;3.40;;;;;;;24.89;45.86;99350.66;5088933;28;20654;-60
2022/04/27 11:52:25;;;;;;;5.43;3.80;;;;;;;25.08;45.97;99351.53;5091779;28;20214;-60
2022/04/27 11:54:53;;;;;;;5.90;3.00;;;;;;;24.98;45.23;99337.13;5090267;28;20569;-60
2022/04/27 11:57:22;;;;;;;4.67;3.33;;;;;;;25.00;45.73;99343.16;5092342;28;20225;-60
2022/04/27 11:59:51;;;;;;;10.63;4.50;;;;;;;25.16;45.32;99345.03;5091783;28;20187;-60